Time;durP1;ratioP1;P1;durP2;ratioP2;P2;SDS_P1;SDS_P2;PMS_P1;PMS_P2;Temp;Humidity;BMP_temperature;BMP_pressure;BME280_temperature;BME280_humidity;BME280_pressure;Samples;Min_cycle;Max_cycle;Signal;HPM_P1;HPM_P2
2023/12/20 00:01:35;;;;;;;60.53;31.70;;;;;;;1.12;63.62;95314.16;5108199;28;20379;-76
2023/12/20 00:04:01;;;;;;;48.60;28.83;;;;;;;1.11;63.53;95323.44;5106400;28;20032;-76
2023/12/20 00:06:26;;;;;;;44.20;27.08;;;;;;;1.09;63.73;95320.31;5107109;28;20429;-77
2023/12/20 00:08:51;;;;;;;43.20;27.30;;;;;;;1.10;63.59;95319.16;5107921;28;20020;-77
2023/12/20 00:11:17;;;;;;;50.55;26.98;;;;;;;1.07;64.28;95309.06;5106481;28;20066;-76
2023/12/20 00:13:42;;;;;;;44.03;25.35;;;;;;;1.10;64.58;95312.97;5108089;28;20043;-77
2023/12/20 00:16:08;;;;;;;41.30;22.52;;;;;;;1.09;64.75;95306.78;5106855;28;20051;-76
2023/12/20 00:18:33;;;;;;;36.63;22.60;;;;;;;1.12;64.96;95299.84;5107557;28;20370;-76
2023/12/20 00:20:59;;;;;;;42.63;22.40;;;;;;;1.11;65.14;95303.69;5107166;28;20034;-77
2023/12/20 00:23:25;;;;;;;39.63;23.02;;;;;;;1.09;64.67;95297.84;5106980;27;20047;-76
2023/12/20 00:25:50;;;;;;;36.72;21.25;;;;;;;1.10;64.74;95289.38;5107905;28;20084;-77
2023/12/20 00:28:16;;;;;;;40.58;23.02;;;;;;;1.10;64.84;95277.78;5106812;28;20012;-78
2023/12/20 00:30:41;;;;;;;38.97;22.77;;;;;;;1.08;64.58;95277.34;5108097;28;20023;-78
2023/12/20 00:33:07;;;;;;;37.05;21.75;;;;;;;1.05;64.92;95274.22;5106770;28;20037;-77
2023/12/20 00:35:35;;;;;;;38.33;23.08;;;;;;;1.04;64.62;95271.91;5107544;28;20027;-77
2023/12/20 00:38:01;;;;;;;39.80;23.73;;;;;;;0.98;64.22;95278.78;5106785;28;20020;-77
2023/12/20 00:40:26;;;;;;;36.95;22.05;;;;;;;1.02;64.18;95274.16;5107151;28;20088;-77
2023/12/20 00:42:51;;;;;;;40.78;23.30;;;;;;;0.95;64.63;95266.75;5106928;28;20031;-78
2023/12/20 00:45:17;;;;;;;43.50;24.63;;;;;;;0.95;64.36;95266.75;5105225;28;20024;-77
2023/12/20 00:47:42;;;;;;;41.88;24.23;;;;;;;0.92;64.09;95269.38;5107665;28;20051;-76
2023/12/20 00:50:09;;;;;;;44.42;25.38;;;;;;;0.89;64.02;95265.50;5106552;28;20108;-78
2023/12/20 00:52:34;;;;;;;47.05;23.35;;;;;;;0.83;64.33;95264.25;5106031;28;20501;-76
2023/12/20 00:54:59;;;;;;;44.90;25.80;;;;;;;0.83;64.12;95263.47;5106112;28;20059;-77
2023/12/20 00:57:25;;;;;;;51.88;26.52;;;;;;;0.81;64.33;95263.06;5106900;28;20114;-77
2023/12/20 00:59:50;;;;;;;49.42;27.30;;;;;;;0.79;64.49;95258.78;5106453;28;20088;-77
2023/12/20 01:02:16;;;;;;;46.03;26.63;;;;;;;0.74;64.57;95255.63;5107196;28;20023;-77
2023/12/20 01:04:41;;;;;;;52.40;26.35;;;;;;;0.72;64.57;95255.22;5107070;28;20393;-77
2023/12/20 01:07:07;;;;;;;44.22;25.15;;;;;;;0.74;64.31;95252.91;5106325;28;20062;-77
2023/12/20 01:09:32;;;;;;;48.85;26.60;;;;;;;0.70;64.23;95239.34;5106785;28;20023;-77
2023/12/20 01:11:58;;;;;;;39.95;24.30;;;;;;;0.71;63.85;95246.31;5104978;28;20039;-77
2023/12/20 01:14:23;;;;;;;41.05;22.50;;;;;;;0.70;63.50;95236.63;5106882;28;20047;-77
2023/12/20 01:16:48;;;;;;;36.28;21.35;;;;;;;0.67;63.57;95239.28;5105884;28;20051;-76
2023/12/20 01:19:14;;;;;;;34.63;21.73;;;;;;;0.67;63.63;95231.16;5105064;28;20064;-77
2023/12/20 01:21:40;;;;;;;41.22;23.30;;;;;;;0.67;63.41;95231.16;5105961;28;20038;-75
2023/12/20 01:24:05;;;;;;;41.67;22.65;;;;;;;0.62;63.90;95234.97;5106163;28;20149;-76
2023/12/20 01:26:31;;;;;;;42.13;22.33;;;;;;;0.59;63.81;95230.31;5106484;28;20039;-77
2023/12/20 01:28:56;;;;;;;38.60;21.73;;;;;;;0.58;63.70;95228.75;5105755;28;20030;-76
2023/12/20 01:31:21;;;;;;;36.25;20.23;;;;;;;0.52;63.70;95216.69;5106909;28;20419;-76
2023/12/20 01:33:47;;;;;;;34.83;20.80;;;;;;;0.56;63.79;95220.19;5105609;28;20035;-77
2023/12/20 01:36:12;;;;;;;40.38;21.08;;;;;;;0.51;63.96;95213.16;5106765;28;20030;-77
2023/12/20 01:38:38;;;;;;;34.28;19.80;;;;;;;0.48;63.95;95207.72;5105595;28;20088;-77
2023/12/20 01:41:03;;;;;;;37.10;20.50;;;;;;;0.49;63.85;95214.69;5106207;28;20115;-77
2023/12/20 01:43:29;;;;;;;38.22;21.40;;;;;;;0.45;64.05;95203.03;5105817;28;20102;-77
2023/12/20 01:45:57;;;;;;;36.67;22.60;;;;;;;0.42;64.14;95196.44;5104787;28;20039;-77
2023/12/20 01:48:23;;;;;;;40.50;21.38;;;;;;;0.39;64.13;95193.69;5106574;28;20027;-76
2023/12/20 01:50:48;;;;;;;34.45;21.58;;;;;;;0.43;63.82;95191.81;5104140;28;20080;-76
2023/12/20 01:53:14;;;;;;;37.28;22.75;;;;;;;0.43;63.92;95194.50;5106414;28;20024;-76
2023/12/20 01:55:40;;;;;;;38.65;21.77;;;;;;;0.44;63.82;95188.72;5104045;28;20055;-76
2023/12/20 01:58:07;;;;;;;40.95;23.42;;;;;;;0.40;64.05;95182.50;5106304;28;20106;-76
2023/12/20 02:00:33;;;;;;;43.33;25.02;;;;;;;0.40;64.36;95185.22;5106153;28;20109;-76
2023/12/20 02:03:01;;;;;;;50.35;27.77;;;;;;;0.41;65.19;95180.59;5105624;28;20502;-76
2023/12/20 02:05:27;;;;;;;54.13;28.77;;;;;;;0.42;65.63;95171.31;5104830;28;20110;-76
2023/12/20 02:07:53;;;;;;;43.47;26.67;;;;;;;0.46;65.20;95181.03;5104882;28;20023;-77
2023/12/20 02:10:19;;;;;;;48.13;27.67;;;;;;;0.44;65.50;95174.44;5106666;28;20055;-76
2023/12/20 02:12:44;;;;;;;44.55;26.83;;;;;;;0.45;65.81;95176.75;5104582;28;20076;-76
2023/12/20 02:15:10;;;;;;;45.20;26.75;;;;;;;0.43;65.72;95167.47;5106447;28;20027;-76
2023/12/20 02:17:36;;;;;;;50.08;25.55;;;;;;;0.43;65.76;95172.88;5105237;28;20024;-77
2023/12/20 02:20:02;;;;;;;36.50;23.20;;;;;;;0.45;65.37;95162.47;5105791;28;20034;-76
2023/12/20 02:22:27;;;;;;;40.97;23.70;;;;;;;0.43;64.81;95159.34;5106572;28;20023;-76
2023/12/20 02:24:53;;;;;;;43.63;22.02;;;;;;;0.45;64.82;95160.53;5109183;28;20085;-77
2023/12/20 02:27:19;;;;;;;49.08;24.73;;;;;;;0.48;65.12;95165.22;5110495;28;20458;-77
2023/12/20 02:29:47;;;;;;;56.55;26.98;;;;;;;0.50;65.70;95151.31;5108609;28;20085;-77
2023/12/20 02:32:12;;;;;;;56.88;27.30;;;;;;;0.50;66.16;95151.31;5110031;28;20034;-78
2023/12/20 02:34:37;;;;;;;69.40;28.55;;;;;;;0.51;66.67;95140.13;5108823;28;20110;-76
2023/12/20 02:37:03;;;;;;;62.28;27.27;;;;;;;0.52;67.24;95144.41;5109820;28;20106;-76
2023/12/20 02:39:28;;;;;;;57.53;26.75;;;;;;;0.54;67.77;95135.94;5109100;28;20024;-77
2023/12/20 02:41:53;;;;;;;65.47;28.55;;;;;;;0.55;68.27;95134.78;5109325;28;20080;-77
2023/12/20 02:44:19;;;;;;;64.28;28.80;;;;;;;0.56;68.65;95136.31;5110072;27;20454;-77
2023/12/20 02:46:44;;;;;;;55.33;27.02;;;;;;;0.51;69.17;95132.00;5108341;28;20047;-77
2023/12/20 02:49:10;;;;;;;56.25;26.92;;;;;;;0.49;69.80;95136.25;5109901;28;20027;-78
2023/12/20 02:51:38;;;;;;;55.35;24.92;;;;;;;0.52;70.08;95140.94;5108527;28;20027;-78
2023/12/20 02:54:04;;;;;;;44.10;24.58;;;;;;;0.46;70.05;95124.25;5109376;27;20024;-77
2023/12/20 02:56:29;;;;;;;58.88;24.45;;;;;;;0.45;70.31;95130.00;5108643;28;20027;-78
2023/12/20 02:58:54;;;;;;;49.95;26.13;;;;;;;0.48;70.11;95134.69;5109131;28;20027;-77
2023/12/20 03:01:20;;;;;;;45.00;24.92;;;;;;;0.45;70.19;95130.78;5108953;28;20146;-77
2023/12/20 03:03:45;;;;;;;49.47;25.55;;;;;;;0.44;70.45;95142.75;5108641;28;20031;-78
2023/12/20 03:06:10;;;;;;;53.20;26.02;;;;;;;0.47;70.57;95130.44;5109832;28;20098;-78
2023/12/20 03:08:36;;;;;;;55.33;26.63;;;;;;;0.46;70.42;95129.66;5106558;28;20034;-77
2023/12/20 03:11:01;;;;;;;46.70;24.55;;;;;;;0.47;70.15;95125.78;5109056;28;20027;-77
2023/12/20 03:13:26;;;;;;;57.40;28.00;;;;;;;0.46;69.95;95126.94;5107794;28;20487;-77
2023/12/20 03:15:52;;;;;;;55.88;27.88;;;;;;;0.49;69.90;95128.13;5108969;28;20030;-77
2023/12/20 03:18:18;;;;;;;57.17;27.10;;;;;;;0.44;69.84;95129.22;5108371;28;20032;-77
2023/12/20 03:20:43;;;;;;;66.70;32.15;;;;;;;0.44;69.76;95121.09;5108042;28;20023;-77
2023/12/20 03:23:09;;;;;;;71.78;32.08;;;;;;;0.41;69.81;95123.78;5109065;28;20072;-77
2023/12/20 03:25:34;;;;;;;51.05;28.60;;;;;;;0.40;69.80;95120.31;5107687;28;20493;-76
2023/12/20 03:28:00;;;;;;;51.45;27.88;;;;;;;0.40;69.76;95119.50;5109103;28;20098;-76
2023/12/20 03:30:25;;;;;;;57.45;29.00;;;;;;;0.34;69.77;95119.03;5107498;28;20032;-77
2023/12/20 03:32:51;;;;;;;58.10;29.45;;;;;;;0.29;69.64;95107.75;5108741;27;20028;-76
2023/12/20 03:35:16;;;;;;;54.28;30.27;;;;;;;0.28;69.34;95100.78;5106956;28;20491;-77
2023/12/20 03:37:41;;;;;;;57.85;28.73;;;;;;;0.25;69.32;95108.50;5108372;28;20024;-77
2023/12/20 03:40:07;;;;;;;65.03;30.25;;;;;;;0.28;69.34;95112.41;5108147;28;20032;-77
2023/12/20 03:42:32;;;;;;;50.83;28.40;;;;;;;0.24;69.52;95109.66;5107782;28;20032;-78
2023/12/20 03:44:58;;;;;;;61.78;30.33;;;;;;;0.24;69.41;95106.94;5108891;28;20035;-76
2023/12/20 03:47:23;;;;;;;60.25;29.55;;;;;;;0.25;69.22;95103.09;5107332;28;20020;-77
2023/12/20 03:49:48;;;;;;;61.58;31.52;;;;;;;0.26;69.14;95106.56;5108607;28;20100;-76
2023/12/20 03:52:14;;;;;;;68.60;32.17;;;;;;;0.21;69.03;95104.97;5107357;28;20045;-77
2023/12/20 03:54:42;;;;;;;62.45;32.42;;;;;;;0.20;69.19;95099.94;5108297;28;20111;-77
2023/12/20 03:57:07;;;;;;;61.78;30.98;;;;;;;0.15;69.20;95109.13;5107865;28;20115;-77
2023/12/20 03:59:36;;;;;;;60.78;31.23;;;;;;;0.13;68.95;95102.56;5107549;28;20051;-78
2023/12/20 04:02:02;;;;;;;61.00;32.20;;;;;;;0.11;69.23;95105.59;5108435;28;20027;-78
2023/12/20 04:04:27;;;;;;;59.30;30.73;;;;;;;0.09;69.22;95096.31;5106803;28;20528;-78
2023/12/20 04:06:52;;;;;;;58.83;31.38;;;;;;;0.08;68.99;95092.81;5108373;28;20103;-77
2023/12/20 04:09:18;;;;;;;64.93;32.30;;;;;;;0.05;69.20;95093.53;5107270;28;20036;-77
2023/12/20 04:11:43;;;;;;;58.83;28.98;;;;;;;-0.05;69.53;95094.19;5107942;28;20031;-77
2023/12/20 04:14:10;;;;;;;55.50;31.17;;;;;;;-0.01;69.17;95084.19;5107259;28;20506;-77
2023/12/20 04:16:35;;;;;;;62.70;32.25;;;;;;;-0.06;68.96;95079.91;5107661;28;20028;-77
2023/12/20 04:19:00;;;;;;;59.88;30.02;;;;;;;-0.10;69.02;95070.97;5107527;28;20032;-77
2023/12/20 04:21:26;;;;;;;59.67;31.38;;;;;;;-0.04;68.79;95082.22;5107169;28;20034;-77
2023/12/20 04:23:51;;;;;;;57.67;30.00;;;;;;;-0.16;68.69;95061.63;5107695;28;20550;-78
2023/12/20 04:26:17;;;;;;;53.15;28.48;;;;;;;-0.11;68.58;95071.34;5106591;28;20055;-78
2023/12/20 04:28:42;;;;;;;57.38;29.95;;;;;;;-0.09;68.28;95063.63;5107662;28;20026;-77
2023/12/20 04:31:08;;;;;;;57.13;28.70;;;;;;;-0.07;67.96;95066.72;5106535;28;20343;-77
2023/12/20 04:33:33;;;;;;;57.25;29.73;;;;;;;-0.12;68.21;95069.75;5107064;28;20023;-77
2023/12/20 04:36:00;;;;;;;54.85;29.55;;;;;;;-0.11;68.19;95071.34;5106705;28;20485;-77
2023/12/20 04:38:25;;;;;;;55.17;27.23;;;;;;;-0.12;68.25;95069.75;5106895;28;20312;-78
2023/12/20 04:40:51;;;;;;;55.15;27.90;;;;;;;-0.20;68.28;95065.41;5106906;28;20084;-77
2023/12/20 04:43:16;;;;;;;53.55;28.05;;;;;;;-0.25;68.45;95055.69;5106512;28;20080;-79
2023/12/20 04:45:42;;;;;;;53.05;28.85;;;;;;;-0.22;68.43;95067.69;5105605;28;20517;-78
2023/12/20 04:48:07;;;;;;;52.47;29.23;;;;;;;-0.20;68.29;95068.88;5106272;28;20466;-78
2023/12/20 04:50:33;;;;;;;53.13;27.80;;;;;;;-0.28;68.55;95068.00;5107352;27;20542;-78
2023/12/20 04:52:58;;;;;;;52.33;27.42;;;;;;;-0.27;68.53;95058.75;5106299;28;20180;-77
2023/12/20 04:55:24;;;;;;;64.63;30.02;;;;;;;-0.31;68.49;95060.63;5106839;28;20103;-78
2023/12/20 04:57:49;;;;;;;60.45;32.05;;;;;;;-0.30;68.61;95058.69;5106636;28;20027;-78
2023/12/20 05:00:15;;;;;;;66.13;30.90;;;;;;;-0.35;68.52;95059.78;5106404;28;20080;-77
2023/12/20 05:02:41;;;;;;;64.38;34.40;;;;;;;-0.32;68.24;95059.06;5106961;28;20039;-77
2023/12/20 05:05:06;;;;;;;68.97;34.58;;;;;;;-0.34;68.53;95061.34;5105982;28;20031;-78
2023/12/20 05:07:32;;;;;;;74.35;35.45;;;;;;;-0.32;68.66;95058.28;5107250;28;20032;-77
2023/12/20 05:09:58;;;;;;;67.55;33.17;;;;;;;-0.34;68.56;95050.56;5105824;28;20098;-77
2023/12/20 05:12:23;;;;;;;55.70;31.10;;;;;;;-0.34;68.47;95045.16;5106917;28;20098;-77
2023/12/20 05:14:49;;;;;;;59.30;30.85;;;;;;;-0.40;68.57;95043.91;5105275;28;20342;-77
2023/12/20 05:17:14;;;;;;;61.30;28.98;;;;;;;-0.40;68.37;95046.59;5106877;28;20099;-77
2023/12/20 05:19:39;;;;;;;54.03;27.33;;;;;;;-0.48;68.47;95039.53;5106861;28;20115;-77
2023/12/20 05:22:05;;;;;;;52.15;26.50;;;;;;;-0.48;68.37;95046.84;5105821;28;20048;-79
2023/12/20 05:24:30;;;;;;;48.53;24.73;;;;;;;-0.55;68.55;95042.91;5107128;28;20034;-78
2023/12/20 05:26:56;;;;;;;48.67;25.33;;;;;;;-0.57;68.68;95039.78;5105803;28;20425;-79
2023/12/20 05:29:21;;;;;;;53.45;26.25;;;;;;;-0.60;68.54;95040.50;5107220;28;20070;-79
2023/12/20 05:31:46;;;;;;;46.13;26.67;;;;;;;-0.58;68.49;95037.44;5105695;28;20027;-77
2023/12/20 05:34:12;;;;;;;49.30;24.88;;;;;;;-0.56;68.35;95029.78;5106841;28;20066;-76
2023/12/20 05:36:38;;;;;;;47.22;25.70;;;;;;;-0.59;68.35;95033.19;5106476;28;20028;-77
2023/12/20 05:39:04;;;;;;;58.78;27.95;;;;;;;-0.60;68.10;95024.31;5106118;28;20027;-77
2023/12/20 05:41:30;;;;;;;54.10;28.05;;;;;;;-0.60;68.42;95032.41;5106275;28;20035;-77
2023/12/20 05:43:57;;;;;;;57.35;29.67;;;;;;;-0.58;68.34;95026.63;5105600;28;20540;-77
2023/12/20 05:46:23;;;;;;;65.63;30.75;;;;;;;-0.61;68.57;95030.06;5106966;28;20027;-77
2023/12/20 05:48:48;;;;;;;60.85;31.05;;;;;;;-0.60;68.70;95018.91;5103757;28;20027;-77
2023/12/20 05:51:14;;;;;;;61.95;31.25;;;;;;;-0.57;68.31;95017.41;5106576;28;20515;-76
2023/12/20 05:53:39;;;;;;;60.25;31.25;;;;;;;-0.56;68.42;95016.25;5105650;28;20016;-78
2023/12/20 05:56:05;;;;;;;67.03;32.35;;;;;;;-0.60;68.63;95018.13;5106335;28;20062;-77
2023/12/20 05:58:30;;;;;;;56.05;32.40;;;;;;;-0.65;68.65;95013.81;5108666;28;20027;-77
2023/12/20 06:00:56;;;;;;;68.40;34.00;;;;;;;-0.63;68.56;95016.13;5108538;28;20111;-78
2023/12/20 06:03:21;;;;;;;57.90;32.63;;;;;;;-0.66;68.63;95017.66;5110620;28;20028;-77
2023/12/20 06:05:46;;;;;;;69.88;35.33;;;;;;;-0.68;68.65;95014.53;5108824;28;20024;-77
2023/12/20 06:08:12;;;;;;;75.28;35.45;;;;;;;-0.68;68.86;95006.44;5109509;28;20121;-77
2023/12/20 06:10:37;;;;;;;71.30;33.25;;;;;;;-0.70;68.86;95011.41;5108412;28;20289;-76
2023/12/20 06:13:04;;;;;;;67.65;34.03;;;;;;;-0.69;68.92;95012.19;5109461;28;20040;-76
2023/12/20 06:15:29;;;;;;;67.93;34.45;;;;;;;-0.62;68.94;95020.41;5109581;28;20027;-76
2023/12/20 06:17:55;;;;;;;61.67;31.20;;;;;;;-0.62;68.88;95006.91;5108446;28;20024;-77
2023/12/20 06:20:20;;;;;;;65.43;31.33;;;;;;;-0.61;68.88;95017.34;5110094;28;20035;-76
2023/12/20 06:22:45;;;;;;;59.55;28.25;;;;;;;-0.59;68.82;95016.97;5108906;28;20150;-77
2023/12/20 06:25:11;;;;;;;57.53;29.00;;;;;;;-0.63;69.06;95016.13;5110744;28;20030;-77
2023/12/20 06:27:36;;;;;;;65.00;30.38;;;;;;;-0.59;68.98;95019.69;5108691;28;20149;-76
2023/12/20 06:30:02;;;;;;;65.65;29.38;;;;;;;-0.55;68.91;95017.81;5110522;28;20034;-76
2023/12/20 06:32:28;;;;;;;59.03;29.02;;;;;;;-0.50;68.55;95014.81;5109311;28;20559;-77
2023/12/20 06:34:54;;;;;;;60.42;30.35;;;;;;;-0.45;68.51;95011.03;5109406;28;20481;-77
2023/12/20 06:37:19;;;;;;;72.07;32.05;;;;;;;-0.49;68.79;95015.59;5109699;28;20030;-76
2023/12/20 06:39:45;;;;;;;64.78;30.75;;;;;;;-0.51;69.37;95012.47;5109031;28;20035;-76
2023/12/20 06:42:10;;;;;;;59.25;29.05;;;;;;;-0.47;69.24;94997.88;5110215;28;20157;-78
2023/12/20 06:44:36;;;;;;;72.93;29.92;;;;;;;-0.45;69.42;95001.00;5108325;28;20035;-77
2023/12/20 06:47:02;;;;;;;60.70;29.08;;;;;;;-0.42;69.45;94997.56;5109887;28;20149;-76
2023/12/20 06:49:27;;;;;;;68.75;31.70;;;;;;;-0.40;69.17;94995.28;5108553;28;20152;-77
2023/12/20 06:51:53;;;;;;;78.13;34.13;;;;;;;-0.30;68.78;94991.94;5109433;28;20028;-77
2023/12/20 06:54:18;;;;;;;71.75;32.55;;;;;;;-0.25;68.38;94987.34;5109245;28;20520;-77
2023/12/20 06:56:43;;;;;;;60.67;29.30;;;;;;;-0.17;68.06;94984.41;5109186;28;20387;-76
2023/12/20 06:59:09;;;;;;;68.93;30.33;;;;;;;-0.16;67.72;94985.94;5107841;28;20446;-78
2023/12/20 07:01:34;;;;;;;66.75;30.17;;;;;;;-0.12;67.62;94992.16;5108136;28;20032;-76
2023/12/20 07:04:00;;;;;;;56.95;28.75;;;;;;;-0.11;67.40;94985.63;5109915;28;20020;-75
2023/12/20 07:06:25;;;;;;;61.22;29.77;;;;;;;-0.11;67.25;94980.22;5108051;28;20106;-75
2023/12/20 07:08:51;;;;;;;64.35;28.17;;;;;;;-0.10;67.40;94989.09;5108894;28;20023;-77
2023/12/20 07:11:17;;;;;;;65.15;29.08;;;;;;;-0.12;67.31;94986.75;5108194;28;20486;-76
2023/12/20 07:13:42;;;;;;;82.80;36.63;;;;;;;-0.04;67.05;94979.53;5108409;28;20048;-77
2023/12/20 07:16:07;;;;;;;78.78;35.05;;;;;;;0.04;66.90;94983.09;5108644;28;20171;-77
2023/12/20 07:18:33;;;;;;;62.03;28.58;;;;;;;0.13;66.51;94978.19;5108926;28;20032;-81
2023/12/20 07:20:58;;;;;;;73.22;32.85;;;;;;;0.17;66.67;94982.50;5109656;28;20035;-78
2023/12/20 07:23:25;;;;;;;71.97;31.92;;;;;;;0.19;66.83;94976.72;5108059;28;20116;-76
2023/12/20 07:25:51;;;;;;;65.07;31.58;;;;;;;0.24;66.61;94971.75;5108911;27;20074;-77
2023/12/20 07:28:16;;;;;;;72.78;33.63;;;;;;;0.24;66.54;94966.34;5108193;28;20043;-78
2023/12/20 07:30:41;;;;;;;72.53;33.10;;;;;;;0.32;66.67;94964.50;5108765;28;20466;-77
2023/12/20 07:33:08;;;;;;;89.90;39.55;;;;;;;0.36;66.66;94968.03;5108221;27;20027;-77
2023/12/20 07:35:34;;;;;;;94.93;40.70;;;;;;;0.41;66.81;94969.63;5108496;28;20023;-77
2023/12/20 07:37:59;;;;;;;101.13;42.08;;;;;;;0.47;66.66;94970.84;5108304;28;20034;-77
2023/12/20 07:40:25;;;;;;;97.88;40.75;;;;;;;0.49;66.59;94977.41;5107880;28;20024;-77
2023/12/20 07:42:50;;;;;;;94.07;39.35;;;;;;;0.44;66.85;94974.28;5109034;28;20374;-77
2023/12/20 07:45:15;;;;;;;86.00;36.97;;;;;;;0.45;66.81;94973.88;5107534;28;20023;-78
2023/12/20 07:47:41;;;;;;;87.93;38.47;;;;;;;0.33;66.47;94935.50;5108566;28;20378;-78
2023/12/20 07:50:06;;;;;;;82.93;34.05;;;;;;;0.52;66.50;94965.88;5107918;28;20020;-79
2023/12/20 07:52:32;;;;;;;79.95;33.85;;;;;;;0.55;66.09;94960.84;5106955;28;20026;-78
2023/12/20 07:54:57;;;;;;;80.38;34.25;;;;;;;0.50;66.22;94964.66;5107804;28;20035;-79
2023/12/20 07:57:23;;;;;;;76.00;35.10;;;;;;;0.51;66.31;94961.59;5108254;28;20032;-78
2023/12/20 07:59:49;;;;;;;78.75;36.10;;;;;;;0.49;66.24;94966.59;5108273;28;20136;-78
2023/12/20 08:02:14;;;;;;;83.38;38.47;;;;;;;0.55;66.29;94958.16;5107421;28;20168;-78
2023/12/20 08:04:40;;;;;;;73.03;35.92;;;;;;;0.55;66.17;94967.03;5108316;28;20119;-77
2023/12/20 08:07:06;;;;;;;78.28;33.53;;;;;;;0.56;66.24;94955.06;5106955;28;20028;-77
2023/12/20 08:09:33;;;;;;;77.03;34.97;;;;;;;0.65;66.12;94960.97;5107695;28;20042;-77
2023/12/20 08:11:59;;;;;;;82.25;34.53;;;;;;;0.62;66.30;94953.56;5107215;28;20047;-78
2023/12/20 08:14:25;;;;;;;81.57;35.33;;;;;;;0.64;66.46;94951.28;5106299;28;20108;-78
2023/12/20 08:16:50;;;;;;;76.57;33.63;;;;;;;0.70;66.24;94943.63;5107812;27;20020;-77
2023/12/20 08:19:15;;;;;;;72.85;32.10;;;;;;;0.75;66.09;94946.00;5105251;28;20114;-77
2023/12/20 08:21:41;;;;;;;80.80;35.72;;;;;;;0.78;66.09;94935.19;5107632;28;20334;-78
2023/12/20 08:24:07;;;;;;;70.65;32.15;;;;;;;0.83;65.97;94941.41;5107191;28;20066;-78
2023/12/20 08:26:33;;;;;;;80.75;36.78;;;;;;;0.89;65.98;94939.91;5108129;28;20701;-78
2023/12/20 08:28:58;;;;;;;80.80;37.10;;;;;;;0.99;65.71;94940.00;5106465;27;20031;-77
2023/12/20 08:31:23;;;;;;;77.28;36.72;;;;;;;1.12;65.33;94940.47;5107612;28;20028;-77
2023/12/20 08:33:49;;;;;;;92.95;38.03;;;;;;;1.22;65.17;94926.25;5106937;28;20041;-77
2023/12/20 08:36:15;;;;;;;76.35;38.00;;;;;;;1.21;65.11;94921.97;5107100;28;20470;-78
2023/12/20 08:38:40;;;;;;;76.07;37.15;;;;;;;1.18;65.13;94914.59;5107248;28;20024;-77
2023/12/20 08:41:06;;;;;;;86.90;38.15;;;;;;;1.21;65.00;94910.38;5106544;28;20026;-78
2023/12/20 08:43:32;;;;;;;88.68;39.05;;;;;;;1.21;65.04;94903.03;5107651;28;20472;-79
2023/12/20 08:45:57;;;;;;;88.28;38.97;;;;;;;1.26;64.91;94904.56;5105976;28;20110;-78
2023/12/20 08:48:23;;;;;;;88.85;37.95;;;;;;;1.25;65.29;94909.22;5107177;28;20032;-78
2023/12/20 08:50:52;;;;;;;88.65;41.00;;;;;;;1.28;64.80;94899.56;5106461;28;20063;-78
2023/12/20 08:53:18;;;;;;;93.53;41.47;;;;;;;1.31;64.82;94896.09;5107231;28;20019;-77
2023/12/20 08:55:44;;;;;;;98.63;42.67;;;;;;;1.28;64.77;94894.94;5107264;28;20080;-78
2023/12/20 08:58:09;;;;;;;102.53;42.95;;;;;;;1.30;64.95;94895.31;5106296;27;20024;-78
2023/12/20 09:00:35;;;;;;;102.43;43.97;;;;;;;1.41;64.38;94881.06;5107778;28;20032;-78
2023/12/20 09:03:01;;;;;;;99.03;45.40;;;;;;;1.36;64.63;94879.50;5104385;28;20421;-77
2023/12/20 09:05:27;;;;;;;110.82;45.95;;;;;;;1.39;64.28;94864.44;5107739;28;20032;-78
2023/12/20 09:07:52;;;;;;;112.00;45.80;;;;;;;1.44;64.68;94861.38;5106194;28;20387;-78
2023/12/20 09:10:21;;;;;;;109.28;47.28;;;;;;;1.41;64.47;94853.97;5107085;28;20110;-78
2023/12/20 09:12:48;;;;;;;108.35;48.85;;;;;;;1.36;64.71;94848.91;5106008;28;20032;-79
2023/12/20 09:15:13;;;;;;;110.68;47.08;;;;;;;1.40;64.83;94855.91;5106272;28;20051;-78
2023/12/20 09:17:39;;;;;;;110.53;46.28;;;;;;;1.42;64.86;94836.56;5106952;28;20061;-78
2023/12/20 09:20:07;;;;;;;103.97;46.00;;;;;;;1.45;65.04;94835.81;5105724;28;20035;-76
2023/12/20 09:22:33;;;;;;;112.28;46.22;;;;;;;1.48;64.89;94830.41;5107213;28;20111;-78
2023/12/20 09:24:58;;;;;;;106.78;44.92;;;;;;;1.55;65.02;94818.84;5105941;28;20107;-77
2023/12/20 09:27:24;;;;;;;101.28;45.70;;;;;;;1.58;65.14;94815.34;5106800;28;20138;-77
2023/12/20 09:29:49;;;;;;;105.78;45.28;;;;;;;1.66;65.09;94805.31;5106038;28;20019;-77
2023/12/20 09:32:15;;;;;;;109.03;45.15;;;;;;;1.69;65.07;94805.31;5105606;28;20098;-77
2023/12/20 09:34:41;;;;;;;109.10;47.50;;;;;;;1.75;65.02;94806.50;5106668;28;20500;-77
2023/12/20 09:37:07;;;;;;;107.10;49.22;;;;;;;1.82;64.84;94801.09;5105872;28;20024;-76
2023/12/20 09:39:33;;;;;;;109.50;48.67;;;;;;;1.89;64.61;94794.91;5106762;28;20088;-77
2023/12/20 09:42:02;;;;;;;111.75;47.10;;;;;;;1.98;64.49;94783.69;5105180;28;20143;-77
2023/12/20 09:44:28;;;;;;;104.43;48.13;;;;;;;2.01;64.57;94775.59;5106502;28;20032;-76
2023/12/20 09:46:55;;;;;;;117.05;49.40;;;;;;;2.08;64.59;94772.09;5105451;28;20027;-77
2023/12/20 09:49:21;;;;;;;116.82;50.70;;;;;;;2.13;64.52;94777.16;5106082;28;20100;-78
2023/12/20 09:51:47;;;;;;;123.80;51.65;;;;;;;2.24;64.33;94777.16;5106161;28;20019;-78
2023/12/20 09:54:14;;;;;;;133.63;59.40;;;;;;;2.25;64.33;94771.34;5104395;28;20037;-78
2023/12/20 09:56:39;;;;;;;123.88;56.67;;;;;;;2.37;63.98;94773.66;5106313;28;20043;-80
2023/12/20 09:59:05;;;;;;;128.80;55.80;;;;;;;2.50;63.62;94773.25;5105186;28;20015;-77
2023/12/20 10:01:31;;;;;;;140.63;61.90;;;;;;;2.57;63.35;94760.47;5106436;28;20456;-77
2023/12/20 10:03:58;;;;;;;138.13;62.35;;;;;;;2.67;63.06;94746.09;5105323;28;20118;-77
2023/12/20 10:06:23;;;;;;;157.35;67.43;;;;;;;2.85;62.70;94748.78;5106131;28;20417;-78
2023/12/20 10:08:49;;;;;;;148.98;68.05;;;;;;;3.18;61.58;94744.03;5105190;28;20027;-78
2023/12/20 10:11:14;;;;;;;160.10;68.05;;;;;;;3.52;60.87;94760.59;5105929;28;20164;-78
2023/12/20 10:13:44;;;;;;;146.52;67.88;;;;;;;4.15;59.32;94747.03;5105939;28;20482;-78
2023/12/20 10:16:09;;;;;;;155.55;66.97;;;;;;;5.73;56.46;94730.59;5104922;28;20071;-79
2023/12/20 10:18:34;;;;;;;142.27;66.75;;;;;;;6.35;54.13;94743.75;5106525;28;20115;-78
2023/12/20 10:21:01;;;;;;;148.05;67.90;;;;;;;7.11;51.84;94727.63;5105024;28;20028;-79
2023/12/20 10:23:26;;;;;;;141.68;65.32;;;;;;;8.35;49.62;94723.44;5105770;28;20038;-78
2023/12/20 10:25:59;;;;;;;139.85;67.05;;;;;;;9.41;45.88;94710.97;5105983;28;20027;-78
2023/12/20 10:28:27;;;;;;;142.65;67.25;;;;;;;10.27;44.68;94717.50;5106426;28;20383;-78
2023/12/20 10:30:58;;;;;;;133.48;67.43;;;;;;;10.99;42.44;94707.69;5106498;28;20089;-78
2023/12/20 10:33:32;;;;;;;134.43;66.95;;;;;;;11.67;40.48;94705.31;5105148;28;20478;-77
2023/12/20 10:35:57;;;;;;;128.40;66.70;;;;;;;12.58;39.32;94704.22;5106618;28;20028;-77
2023/12/20 10:38:23;;;;;;;127.68;64.85;;;;;;;13.17;38.32;94689.13;5105427;28;20038;-78
2023/12/20 10:40:49;;;;;;;126.35;66.47;;;;;;;13.77;36.81;94687.75;5106068;28;20410;-78
2023/12/20 10:43:15;;;;;;;129.57;67.40;;;;;;;14.48;35.54;94684.47;5104715;28;20414;-78
2023/12/20 10:45:42;;;;;;;140.18;73.60;;;;;;;14.93;34.70;94682.69;5109713;28;20554;-77
2023/12/20 10:48:10;;;;;;;132.05;71.30;;;;;;;15.36;33.82;94669.44;5109620;28;20026;-77
2023/12/20 10:50:38;;;;;;;131.32;71.72;;;;;;;16.12;32.63;94665.03;5108615;28;20019;-78
2023/12/20 10:53:03;;;;;;;128.90;70.47;;;;;;;16.64;31.57;94665.31;5109647;28;20030;-78
2023/12/20 10:55:29;;;;;;;126.97;70.57;;;;;;;17.48;29.95;94669.16;5108800;28;20107;-79
2023/12/20 10:58:02;;;;;;;125.45;66.82;;;;;;;18.15;28.99;94665.53;5107946;28;20023;-77
2023/12/20 11:00:30;;;;;;;120.55;68.57;;;;;;;18.37;28.49;94659.41;5108633;28;20051;-79
2023/12/20 11:03:02;;;;;;;123.93;70.20;;;;;;;17.82;29.13;94652.84;5108797;28;20035;-79
2023/12/20 11:05:39;;;;;;;129.63;75.00;;;;;;;17.14;29.42;94651.31;5108135;28;20051;-79
2023/12/20 11:08:20;;;;;;;138.30;79.50;;;;;;;15.62;31.53;94645.53;5108065;28;20501;-77
2023/12/20 11:11:00;;;;;;;140.73;78.95;;;;;;;14.70;33.08;94639.16;5107978;28;20063;-78
2023/12/20 11:13:44;;;;;;;134.18;74.25;;;;;;;15.99;31.43;94625.72;5106903;28;20524;-79
2023/12/20 11:16:09;;;;;;;136.65;77.32;;;;;;;17.08;29.73;94630.31;5106939;28;20024;-79